Time;durP1;ratioP1;P1;durP2;ratioP2;P2;SDS_P1;SDS_P2;PMS_P1;PMS_P2;Temp;Humidity;BMP_temperature;BMP_pressure;BME280_temperature;BME280_humidity;BME280_pressure;Samples;Min_cycle;Max_cycle;Signal;HPM_P1;HPM_P2
2023/01/01 00:02:18;;;;;;;;;;;;;;;-144.99;67.25;52554.09;5046935;28;19963;-71
2023/01/01 00:04:46;;;;;;;;;;;;;;;-144.99;67.34;52529.63;5043886;28;19953;-72
2023/01/01 00:07:13;;;;;;;;;;;;;;;-144.99;67.16;52554.09;5049505;28;19953;-67
2023/01/01 00:12:25;;;;;;;;;;;;;;;-144.99;67.04;52562.25;5048514;28;20242;-66
2023/01/01 00:14:51;;;;;;;;;;;;;;;-144.99;66.81;52480.72;5049490;28;19950;-66
2023/01/01 00:17:18;;;;;;;;;;;;;;;-144.99;66.46;52533.69;5049298;28;19954;-66
2023/01/01 00:19:44;;;;;;;;;;;;;;;-144.99;66.57;52537.78;5049607;28;20567;-66
2023/01/01 00:22:11;;;;;;;;;;;;;;;-144.99;66.66;52541.84;5049023;28;19958;-66
2023/01/01 00:24:37;;;;;;;;;;;;;;;-144.99;66.67;52525.56;5040138;28;20027;-66
2023/01/01 00:27:05;;;;;;;;;;;;;;;-144.99;66.45;52525.56;5048958;28;20192;-65
2023/01/01 00:29:32;;;;;;;;;;;;;;;-144.99;66.44;52505.16;5036858;28;20005;-66
2023/01/01 00:31:58;;;;;;;;;;;;;;;-144.99;66.27;52525.56;5049535;28;20358;-66
2023/01/01 00:34:25;;;;;;;;;;;;;;;-144.99;66.08;52570.38;5036474;28;19948;-65
2023/01/01 00:36:52;;;;;;;;;;;;;;;-144.99;66.40;52554.09;5051305;28;20104;-66
2023/01/01 00:39:18;;;;;;;;;;;;;;;-144.99;66.20;52505.16;5045276;28;20707;-65
2023/01/01 00:41:45;;;;;;;;;;;;;;;-144.99;66.09;52513.31;5038979;28;20022;-66
2023/01/01 00:44:13;;;;;;;;;;;;;;;-144.99;66.17;52562.25;5048001;28;19950;-67
2023/01/01 00:46:39;;;;;;;;;;;;;;;-144.99;66.24;52562.25;5048615;28;19999;-68
2023/01/01 00:49:06;;;;;;;;;;;;;;;-144.99;66.13;52541.84;5047990;28;20434;-67
2023/01/01 00:51:32;;;;;;;;;;;;;;;-144.99;66.32;52492.94;5048528;28;20386;-67
2023/01/01 00:53:59;;;;;;;;;;;;;;;-144.99;65.99;52572.44;5038890;28;19970;-66
2023/01/01 00:56:25;;;;;;;;;;;;;;;-144.99;66.12;52521.47;5046270;28;20410;-67
2023/01/01 00:58:52;;;;;;;;;;;;;;;-144.99;65.54;52558.16;5045344;28;19988;-66
2023/01/01 01:01:20;;;;;;;;;;;;;;;-144.99;65.44;52554.09;5047493;28;19966;-67
2023/01/01 01:03:46;;;;;;;;;;;;;;;-144.99;65.64;52541.84;5047436;28;20499;-68
2023/01/01 01:06:15;;;;;;;;;;;;;;;-144.99;65.66;52537.78;5048429;28;19958;-63
2023/01/01 01:08:42;;;;;;;;;;;;;;;-144.99;65.37;52513.31;5047856;28;19986;-65
2023/01/01 01:11:10;;;;;;;;;;;;;;;-144.99;65.50;52537.78;5047800;28;19948;-67
2023/01/01 01:13:37;;;;;;;;;;;;;;;-144.99;65.65;52533.69;5050183;28;20018;-67
2023/01/01 01:16:08;;;;;;;;;;;;;;;-144.99;65.16;52566.31;5047322;28;19951;-68
2023/01/01 01:18:36;;;;;;;;;;;;;;;-144.99;65.17;52523.50;5041869;28;19937;-70
2023/01/01 01:21:02;;;;;;;;;;;;;;;-144.99;65.37;52505.16;5041798;28;19972;-71
2023/01/01 01:23:29;;;;;;;;;;;;;;;-144.99;65.50;52539.81;5044774;28;19947;-71
2023/01/01 01:26:05;;;;;;;;;;;;;;;-144.99;65.50;52550.00;5043775;28;20011;-69
2023/01/01 01:28:32;;;;;;;;;;;;;;;-144.99;65.82;52566.31;5038067;28;20005;-69
2023/01/01 01:30:59;;;;;;;;;;;;;;;-144.99;65.69;52550.00;5040249;28;19950;-70
2023/01/01 01:33:25;;;;;;;;;;;;;;;-144.99;65.64;52566.31;5043661;28;19940;-70
2023/01/01 01:35:53;;;;;;;;;;;;;;;-144.99;65.84;52533.69;5048919;28;19952;-70
2023/01/01 01:38:20;;;;;;;;;;;;;;;-144.99;65.68;52521.47;5048132;28;19956;-71
2023/01/01 01:40:46;;;;;;;;;;;;;;;-144.99;65.83;52517.41;5048099;28;19950;-70
2023/01/01 01:43:20;;;;;;;;;;;;;;;-144.99;65.90;52568.34;5048319;28;20010;-68
2023/01/01 01:45:47;;;;;;;;;;;;;;;-144.99;65.87;52552.03;5047481;28;19953;-65
2023/01/01 01:48:14;;;;;;;;;;;;;;;-144.99;66.16;52533.69;5044129;28;19943;-66
2023/01/01 01:50:42;;;;;;;;;;;;;;;-144.99;66.30;52558.16;5039350;28;19958;-65
2023/01/01 01:53:12;;;;;;;;;;;;;;;-144.99;66.18;52541.84;5042316;28;20056;-67
2023/01/01 01:55:40;;;;;;;;;;;;;;;-144.99;66.21;52554.09;5052071;28;19940;-68
2023/01/01 01:58:09;;;;;;;;;;;;;;;-144.99;66.01;52550.00;5048958;28;20320;-68
2023/01/01 02:00:36;;;;;;;;;;;;;;;-144.99;65.80;52525.56;5045964;28;20028;-68
2023/01/01 02:03:04;;;;;;;;;;;;;;;-144.99;65.82;52499.06;5046722;28;20024;-69
2023/01/01 02:05:31;;;;;;;;;;;;;;;-144.99;65.86;52562.25;5045286;28;19965;-68
2023/01/01 02:07:59;;;;;;;;;;;;;;;-144.99;65.70;52529.63;5046056;28;19993;-68
2023/01/01 02:10:28;;;;;;;;;;;;;;;-144.99;65.65;52558.16;5038540;28;19968;-68
2023/01/01 02:12:55;;;;;;;;;;;;;;;-144.99;66.09;52562.25;5040389;28;20393;-69
2023/01/01 02:15:23;;;;;;;;;;;;;;;-144.99;66.42;52558.16;5041325;28;20368;-68
2023/01/01 02:17:54;;;;;;;;;;;;;;;-144.99;66.61;52517.41;5048027;28;19949;-68
2023/01/01 02:20:34;;;;;;;;;;;;;;;-144.99;67.17;52513.31;5060583;22;19970;-68
2023/01/01 02:23:15;;;;;;;;;;;;;;;-144.99;67.00;52554.09;5037054;28;19963;-68
2023/01/01 02:25:50;;;;;;;;;;;;;;;-144.99;67.12;52562.25;5027249;28;20004;-68
2023/01/01 02:28:24;;;;;;;;;;;;;;;-144.99;67.05;52533.69;5045247;28;20737;-65
2023/01/01 02:30:52;;;;;;;;;;;;;;;-144.99;66.80;52541.84;5024475;28;19951;-64
2023/01/01 02:33:22;;;;;;;;;;;;;;;-144.99;67.02;52545.94;5022646;28;19952;-64
2023/01/01 02:35:51;;;;;;;;;;;;;;;-144.99;66.71;52537.78;5024919;28;19947;-64
2023/01/01 02:38:23;;;;;;;;;;;;;;;-144.99;66.66;52515.34;5025191;28;20261;-64
2023/01/01 02:40:51;;;;;;;;;;;;;;;-144.99;66.69;52521.47;5024371;28;20611;-64
2023/01/01 02:43:17;;;;;;;;;;;;;;;-144.99;66.39;52529.63;5019615;28;19973;-66
2023/01/01 02:45:44;;;;;;;;;;;;;;;-144.99;66.50;52505.16;5026556;28;19997;-64
2023/01/01 02:48:25;;;;;;;;;;;;;;;-144.99;66.42;52550.00;5022530;28;20032;-64
2023/01/01 02:50:55;;;;;;;;;;;;;;;-144.99;66.37;52568.34;5026458;28;20399;-64
2023/01/01 02:53:28;;;;;;;;;;;;;;;-144.99;66.62;52494.97;5027211;28;20364;-64
2023/01/01 02:56:00;;;;;;;;;;;;;;;-144.99;66.56;52558.16;5027166;28;20145;-65
2023/01/01 03:01:21;;;;;;;;;;;;;;;-144.99;66.93;52570.38;5026815;28;19956;-65
2023/01/01 03:03:52;;;;;;;;;;;;;;;-144.99;67.38;52550.00;5024576;28;19961;-65
2023/01/01 03:06:25;;;;;;;;;;;;;;;-144.99;67.19;52529.63;5022238;28;20014;-68
2023/01/01 03:08:55;;;;;;;;;;;;;;;-144.99;67.30;52480.72;5019881;28;19963;-72
2023/01/01 03:11:22;;;;;;;;;;;;;;;-144.99;67.48;52517.41;5017038;28;19957;-74
2023/01/01 03:13:52;;;;;;;;;;;;;;;-144.99;67.54;52554.09;5014628;28;20446;-74
2023/01/01 03:16:21;;;;;;;;;;;;;;;-144.99;67.84;52545.94;5017752;28;19958;-73
2023/01/01 03:19:09;;;;;;;;;;;;;;;-144.99;67.80;52537.78;4672844;28;10000014;-73
2023/01/01 03:21:37;;;;;;;;;;;;;;;-144.99;68.20;52533.69;5015623;28;19963;-73
2023/01/01 03:24:05;;;;;;;;;;;;;;;-144.99;68.48;52525.56;5034207;28;19967;-73
2023/01/01 03:26:34;;;;;;;;;;;;;;;-144.99;68.72;52550.00;5034585;28;20390;-72
2023/01/01 03:29:02;;;;;;;;;;;;;;;-144.99;68.93;52558.16;5019996;28;19963;-72
2023/01/01 03:31:29;;;;;;;;;;;;;;;-144.99;69.20;52556.13;5029688;28;20006;-72
2023/01/01 03:34:00;;;;;;;;;;;;;;;-144.99;69.26;52570.38;5019060;28;20648;-66
2023/01/01 03:36:29;;;;;;;;;;;;;;;-144.99;69.84;52531.66;5012441;28;19949;-66
2023/01/01 03:39:00;;;;;;;;;;;;;;;-144.99;69.36;52564.28;5024079;28;19978;-66
2023/01/01 03:41:32;;;;;;;;;;;;;;;-144.99;69.71;52590.78;5031744;28;20041;-65
2023/01/01 03:44:03;;;;;;;;;;;;;;;-144.99;69.40;52611.16;5030863;28;19949;-65
2023/01/01 03:46:31;;;;;;;;;;;;;;;-144.99;69.76;52574.47;5031365;28;20167;-64
2023/01/01 03:48:59;;;;;;;;;;;;;;;-144.99;69.41;52537.78;5018738;28;19995;-66
2023/01/01 03:51:27;;;;;;;;;;;;;;;-144.99;69.28;52525.56;5031887;28;20432;-67
2023/01/01 03:53:57;;;;;;;;;;;;;;;-144.99;69.53;52556.13;5031156;28;20082;-65
2023/01/01 03:56:29;;;;;;;;;;;;;;;-144.99;69.31;52545.94;5027020;28;20182;-65
2023/01/01 03:58:59;;;;;;;;;;;;;;;-144.99;69.37;52521.47;5030056;28;20029;-66
2023/01/01 04:01:27;;;;;;;;;;;;;;;-144.99;69.60;52554.09;5031530;28;20450;-66
2023/01/01 04:03:54;;;;;;;;;;;;;;;-144.99;69.73;52554.09;5031179;28;19985;-65
2023/01/01 04:06:20;;;;;;;;;;;;;;;-144.99;69.50;52617.28;5029899;28;19947;-65
2023/01/01 04:08:49;;;;;;;;;;;;;;;-144.99;69.56;52537.78;5025867;28;19960;-64
2023/01/01 04:14:04;;;;;;;;;;;;;;;-144.99;69.91;52521.47;5019026;28;19956;-67
2023/01/01 04:16:30;;;;;;;;;;;;;;;-144.99;70.03;52556.13;5031396;28;19940;-67
2023/01/01 04:18:57;;;;;;;;;;;;;;;-144.99;70.30;52537.78;5022729;28;20363;-67
2023/01/01 04:21:23;;;;;;;;;;;;;;;-144.99;70.73;52545.94;5030796;28;20480;-66
2023/01/01 04:23:50;;;;;;;;;;;;;;;-144.99;70.66;52545.94;5029522;28;20014;-67
2023/01/01 04:26:16;;;;;;;;;;;;;;;-144.99;71.13;52545.94;5022836;28;19954;-66
2023/01/01 04:28:43;;;;;;;;;;;;;;;-144.99;71.14;52550.00;5027744;28;20026;-66
2023/01/01 04:31:11;;;;;;;;;;;;;;;-144.99;71.37;52537.78;5021179;28;20038;-66
2023/01/01 04:33:38;;;;;;;;;;;;;;;-144.99;71.21;52533.69;5028926;28;20115;-66
2023/01/01 04:36:06;;;;;;;;;;;;;;;-144.99;71.51;52570.38;5025206;28;19947;-65
2023/01/01 04:38:33;;;;;;;;;;;;;;;-144.99;71.50;52517.41;5030939;28;19950;-65
2023/01/01 04:40:59;;;;;;;;;;;;;;;-144.99;71.64;52550.00;5030647;28;19954;-65
2023/01/01 04:43:26;;;;;;;;;;;;;;;-144.99;71.74;52537.78;5030259;28;20431;-64
2023/01/01 04:45:56;;;;;;;;;;;;;;;-144.99;71.95;52550.00;5028646;28;20027;-72
2023/01/01 04:48:24;;;;;;;;;;;;;;;-144.99;72.21;52566.31;5030332;28;20388;-61
2023/01/01 04:50:55;;;;;;;;;;;;;;;-144.99;72.04;52545.94;5030327;28;19948;-62
2023/01/01 04:53:21;;;;;;;;;;;;;;;-144.99;72.24;52523.50;5021836;28;20321;-63
2023/01/01 04:55:48;;;;;;;;;;;;;;;-144.99;72.28;52543.91;5028680;28;20350;-62
2023/01/01 04:58:14;;;;;;;;;;;;;;;-144.99;72.23;52541.84;5025100;28;19946;-63
2023/01/01 05:00:41;;;;;;;;;;;;;;;-144.99;71.83;52509.25;5016754;28;20000;-63
2023/01/01 05:03:08;;;;;;;;;;;;;;;-144.99;72.04;52570.38;5030277;28;20020;-66
2023/01/01 05:05:35;;;;;;;;;;;;;;;-144.99;71.78;52566.31;5024445;28;19949;-63
2023/01/01 05:08:02;;;;;;;;;;;;;;;-144.99;71.67;52521.47;5026856;28;19948;-63
2023/01/01 05:10:29;;;;;;;;;;;;;;;-144.99;71.43;52547.97;5025614;28;20359;-62
2023/01/01 05:12:55;;;;;;;;;;;;;;;-144.99;71.08;52533.69;5025695;28;20028;-62
2023/01/01 05:15:22;;;;;;;;;;;;;;;-144.99;71.10;52527.59;5027889;28;19948;-61
2023/01/01 05:17:48;;;;;;;;;;;;;;;-144.99;70.73;52521.47;5023389;28;19950;-68
2023/01/01 05:20:15;;;;;;;;;;;;;;;-144.99;70.49;52554.09;5028478;28;20009;-71
2023/01/01 05:22:45;;;;;;;;;;;;;;;-144.99;70.47;52566.31;5029338;28;20007;-69
2023/01/01 05:25:11;;;;;;;;;;;;;;;-144.99;71.92;52545.94;5027453;28;19969;-68
2023/01/01 05:27:38;;;;;;;;;;;;;;;-144.99;72.54;52517.41;5023701;28;19944;-68
2023/01/01 05:30:05;;;;;;;;;;;;;;;-144.99;72.06;52554.09;5021168;28;20025;-70
2023/01/01 05:32:32;;;;;;;;;;;;;;;-144.99;72.20;52525.56;5029486;28;19953;-70
2023/01/01 05:34:58;;;;;;;;;;;;;;;-144.99;71.79;52519.44;5028953;28;20024;-70
2023/01/01 05:37:25;;;;;;;;;;;;;;;-144.99;71.67;52558.16;5024052;28;19989;-68
2023/01/01 05:39:53;;;;;;;;;;;;;;;-144.99;71.41;52533.69;5029903;28;20028;-70
2023/01/01 05:42:19;;;;;;;;;;;;;;;-144.99;71.21;52541.84;5029608;28;20389;-68
2023/01/01 05:44:46;;;;;;;;;;;;;;;-144.99;70.73;52558.16;5028710;28;20477;-69
2023/01/01 05:47:14;;;;;;;;;;;;;;;-144.99;70.95;52550.00;5029517;28;20303;-69
2023/01/01 05:49:40;;;;;;;;;;;;;;;-144.99;69.89;52503.13;5029826;28;19965;-69
2023/01/01 05:52:07;;;;;;;;;;;;;;;-144.99;70.10;52525.56;5029572;28;19963;-71
2023/01/01 05:54:33;;;;;;;;;;;;;;;-144.99;70.02;52558.16;5025166;28;19982;-78
2023/01/01 05:57:01;;;;;;;;;;;;;;;-144.99;69.39;52545.94;5047404;28;20038;-77
2023/01/01 05:59:28;;;;;;;;;;;;;;;-144.99;68.90;52554.09;5043894;28;19999;-77
2023/01/01 06:01:55;;;;;;;;;;;;;;;-144.99;68.78;52547.97;5019666;28;20031;-77
2023/01/01 06:04:21;;;;;;;;;;;;;;;-144.99;68.44;52570.38;5032295;28;19988;-77
2023/01/01 06:06:48;;;;;;;;;;;;;;;-144.99;68.25;52537.78;5020426;28;20417;-76
2023/01/01 06:09:15;;;;;;;;;;;;;;;-144.99;68.02;52525.56;5030277;28;19971;-77
2023/01/01 06:11:42;;;;;;;;;;;;;;;-144.99;67.90;52523.50;5018643;28;20353;-77
2023/01/01 06:14:10;;;;;;;;;;;;;;;-144.99;67.35;52529.63;5032983;28;19961;-77
2023/01/01 06:16:36;;;;;;;;;;;;;;;-144.99;67.25;52521.47;5016636;28;19952;-77
2023/01/01 06:19:03;;;;;;;;;;;;;;;-144.99;67.02;52545.94;5021155;28;19969;-77
2023/01/01 06:21:30;;;;;;;;;;;;;;;-144.99;66.55;52513.31;5016470;28;19955;-77
2023/01/01 06:23:57;;;;;;;;;;;;;;;-144.99;66.36;52517.41;5029860;28;19969;-77
2023/01/01 06:26:25;;;;;;;;;;;;;;;-144.99;66.48;52519.44;5029403;28;19947;-77
2023/01/01 06:28:52;;;;;;;;;;;;;;;-144.99;66.50;52529.63;5020837;28;19960;-77
2023/01/01 06:31:21;;;;;;;;;;;;;;;-144.99;66.43;52554.09;5024324;28;19949;-77
2023/01/01 06:33:49;;;;;;;;;;;;;;;-144.99;66.55;52547.97;5014140;28;20024;-77
2023/01/01 06:36:16;;;;;;;;;;;;;;;-144.99;67.52;52537.78;5030910;28;20353;-77
2023/01/01 06:38:44;;;;;;;;;;;;;;;-144.99;69.76;52529.63;5030601;28;19967;-69
2023/01/01 06:41:11;;;;;;;;;;;;;;;-144.99;71.81;52545.94;5025691;28;19947;-67
2023/01/01 06:43:38;;;;;;;;;;;;;;;-144.99;74.27;52517.41;5028741;28;20025;-67
2023/01/01 06:46:06;;;;;;;;;;;;;;;-144.99;74.66;52537.78;5028862;28;20367;-68
2023/01/01 06:48:35;;;;;;;;;;;;;;;-144.99;75.29;52525.56;5027513;28;19941;-66
2023/01/01 06:51:05;;;;;;;;;;;;;;;-144.99;75.26;52554.09;5020542;28;19944;-65
2023/01/01 06:53:32;;;;;;;;;;;;;;;-144.99;74.92;52566.31;5028459;28;20339;-68
2023/01/01 06:55:58;;;;;;;;;;;;;;;-144.99;74.37;52533.69;5028304;28;20523;-68
2023/01/01 06:58:25;;;;;;;;;;;;;;;-144.99;73.16;52545.94;5027088;28;20099;-67
2023/01/01 07:00:51;;;;;;;;;;;;;;;-144.99;72.25;52588.75;5021273;28;20009;-68
2023/01/01 07:03:18;;;;;;;;;;;;;;;-144.99;71.58;52556.13;5027131;28;19968;-72
2023/01/01 07:05:46;;;;;;;;;;;;;;;-144.99;70.74;52541.84;5028727;28;20005;-66
2023/01/01 07:08:12;;;;;;;;;;;;;;;-144.99;70.39;52533.69;5028149;28;20462;-65
2023/01/01 07:10:39;;;;;;;;;;;;;;;-144.99;69.71;52533.69;5021613;28;19958;-67
2023/01/01 07:13:05;;;;;;;;;;;;;;;-144.99;69.19;52521.47;5028136;28;19948;-66
2023/01/01 07:15:32;;;;;;;;;;;;;;;-144.99;68.72;52521.47;5032393;28;20090;-67
2023/01/01 07:17:58;;;;;;;;;;;;;;;-144.99;68.94;52521.47;5031064;28;20008;-67
2023/01/01 07:20:25;;;;;;;;;;;;;;;-144.99;68.59;52550.00;5027290;28;19973;-66
2023/01/01 07:22:53;;;;;;;;;;;;;;;-144.99;68.63;52554.09;5031669;28;19972;-65
2023/01/01 07:25:19;;;;;;;;;;;;;;;-144.99;68.07;52521.47;5031722;28;19959;-65
2023/01/01 07:27:46;;;;;;;;;;;;;;;-144.99;67.95;52501.09;5030326;28;19988;-64
2023/01/01 07:30:12;;;;;;;;;;;;;;;-144.99;68.00;52521.47;5023354;28;19969;-66
2023/01/01 07:32:39;;;;;;;;;;;;;;;-144.99;67.97;52541.84;5030866;28;20369;-65
2023/01/01 07:35:06;;;;;;;;;;;;;;;-144.99;67.85;52507.19;5031830;28;20395;-64
2023/01/01 07:37:33;;;;;;;;;;;;;;;-144.99;67.73;52537.78;5031347;28;19946;-65
2023/01/01 07:40:01;;;;;;;;;;;;;;;-144.99;67.27;52529.63;5029522;28;20401;-64
2023/01/01 07:42:27;;;;;;;;;;;;;;;-144.99;66.96;52550.00;5018104;28;19952;-65
2023/01/01 07:44:54;;;;;;;;;;;;;;;-144.99;66.67;52552.03;5031429;28;19968;-65
2023/01/01 07:47:22;;;;;;;;;;;;;;;-144.99;66.70;52554.09;5031831;28;19960;-65
2023/01/01 07:49:48;;;;;;;;;;;;;;;-144.99;66.45;52558.16;5023551;28;20034;-66
2023/01/01 07:52:15;;;;;;;;;;;;;;;-144.99;66.43;52547.97;5030145;28;20016;-65
2023/01/01 07:54:42;;;;;;;;;;;;;;;-144.99;66.21;52533.69;5031221;28;20345;-66
2023/01/01 07:57:09;;;;;;;;;;;;;;;-144.99;65.62;52594.84;5031305;28;20023;-66
2023/01/01 07:59:36;;;;;;;;;;;;;;;-144.99;65.59;52570.38;5029562;28;20036;-65
2023/01/01 08:02:03;;;;;;;;;;;;;;;-144.99;64.93;52517.41;5030907;28;19999;-64
2023/01/01 08:04:30;;;;;;;;;;;;;;;-144.99;64.60;52582.63;5031010;28;19964;-63
2023/01/01 08:06:56;;;;;;;;;;;;;;;-144.99;64.19;52541.84;5031524;28;20462;-63
2023/01/01 08:09:23;;;;;;;;;;;;;;;-144.99;64.59;52529.63;5029359;28;19967;-64
2023/01/01 08:11:51;;;;;;;;;;;;;;;-144.99;64.25;52558.16;5026411;28;19947;-64
2023/01/01 08:14:19;;;;;;;;;;;;;;;-144.99;64.11;52537.78;5030862;28;19960;-62
2023/01/01 08:16:46;;;;;;;;;;;;;;;-144.99;64.16;52541.84;5032853;28;19950;-75
2023/01/01 08:19:12;;;;;;;;;;;;;;;-144.99;64.10;52525.56;5023721;28;19959;-76
2023/01/01 08:21:39;;;;;;;;;;;;;;;-144.99;64.00;52519.44;5059539;22;20433;-70
2023/01/01 08:24:06;;;;;;;;;;;;;;;-144.99;63.98;52556.13;5076406;28;19966;-68
2023/01/01 08:26:33;;;;;;;;;;;;;;;-144.99;63.76;52568.34;5082831;28;20414;-67
2023/01/01 08:29:01;;;;;;;;;;;;;;;-144.99;63.65;52507.19;5080832;28;19971;-70
2023/01/01 08:31:29;;;;;;;;;;;;;;;-144.99;63.34;52519.44;5063891;28;19945;-69
2023/01/01 08:33:56;;;;;;;;;;;;;;;-144.99;63.46;52562.25;5065396;28;19950;-68
2023/01/01 08:36:23;;;;;;;;;;;;;;;-144.99;63.10;52598.94;5062564;28;19952;-68
2023/01/01 08:38:49;;;;;;;;;;;;;;;-144.99;63.31;52541.84;5063973;28;19969;-68
2023/01/01 08:41:16;;;;;;;;;;;;;;;-144.99;63.19;52543.91;5060429;28;20034;-68
2023/01/01 08:43:42;;;;;;;;;;;;;;;-144.99;63.55;52554.09;5058637;28;19975;-69
2023/01/01 08:46:09;;;;;;;;;;;;;;;-144.99;63.33;52519.44;5061094;28;20429;-68
2023/01/01 08:48:37;;;;;;;;;;;;;;;-144.99;63.70;52521.47;5052341;28;20286;-68
2023/01/01 08:51:04;;;;;;;;;;;;;;;-144.99;62.88;52539.81;5051242;28;19953;-74
2023/01/01 08:53:31;;;;;;;;;;;;;;;-144.99;62.39;52545.94;5044797;28;20198;-69
2023/01/01 08:55:58;;;;;;;;;;;;;;;-144.99;62.87;52562.25;5053763;28;20409;-69
2023/01/01 08:58:24;;;;;;;;;;;;;;;-144.99;62.92;52533.69;5052285;28;20433;-68
2023/01/01 09:00:51;;;;;;;;;;;;;;;-144.99;63.01;52554.09;5053082;28;19952;-68
2023/01/01 09:03:17;;;;;;;;;;;;;;;-144.99;62.63;52556.13;5053067;28;19947;-68
2023/01/01 09:05:45;;;;;;;;;;;;;;;-144.99;62.59;52537.78;5053077;28;20393;-68
2023/01/01 09:08:12;;;;;;;;;;;;;;;-144.99;62.75;52499.06;5051062;28;19947;-71
2023/01/01 09:10:39;;;;;;;;;;;;;;;-144.99;62.92;52539.81;5052854;28;19962;-71
2023/01/01 09:13:05;;;;;;;;;;;;;;;-144.99;62.35;52554.09;5053326;28;20073;-71
2023/01/01 09:15:32;;;;;;;;;;;;;;;-144.99;62.06;52550.00;5050721;28;20412;-72
2023/01/01 09:17:58;;;;;;;;;;;;;;;-144.99;62.40;52566.31;5049508;28;19948;-73
2023/01/01 09:20:25;;;;;;;;;;;;;;;-144.99;62.28;52558.16;5051323;28;20174;-71
2023/01/01 09:22:53;;;;;;;;;;;;;;;-144.99;62.56;52537.78;5052151;28;19951;-75
2023/01/01 09:25:19;;;;;;;;;;;;;;;-144.99;62.51;52566.31;5052154;28;19970;-72
2023/01/01 09:27:46;;;;;;;;;;;;;;;-144.99;62.13;52570.38;5052783;28;19950;-72
2023/01/01 09:30:13;;;;;;;;;;;;;;;-144.99;61.84;52552.03;5047714;28;19956;-72
2023/01/01 09:32:40;;;;;;;;;;;;;;;-144.99;61.89;52533.69;5053856;28;20423;-72
2023/01/01 09:35:06;;;;;;;;;;;;;;;-144.99;61.52;52545.94;5051533;28;19951;-72
2023/01/01 09:37:34;;;;;;;;;;;;;;;-144.99;61.60;52492.94;5052262;28;19998;-71
2023/01/01 09:40:02;;;;;;;;;;;;;;;-144.99;61.64;52552.03;5052215;28;20482;-71
2023/01/01 09:42:35;;;;;;;;;;;;;;;-144.99;61.77;52541.84;5060062;28;19946;-72
2023/01/01 09:45:15;;;;;;;;;;;;;;;-144.99;61.93;52566.31;5055414;28;19967;-72
2023/01/01 09:47:44;;;;;;;;;;;;;;;-144.99;62.30;52578.53;5053832;28;19939;-72
2023/01/01 09:50:13;;;;;;;;;;;;;;;-144.99;62.60;52560.19;5061945;28;19973;-75
2023/01/01 09:52:44;;;;;;;;;;;;;;;-144.99;62.76;52554.09;5064806;28;19934;-71
2023/01/01 09:55:15;;;;;;;;;;;;;;;-144.99;62.81;52547.97;5062160;28;20246;-71
2023/01/01 09:57:42;;;;;;;;;;;;;;;-144.99;63.04;52554.09;5059994;28;19953;-71
2023/01/01 10:00:14;;;;;;;;;;;;;;;-144.99;63.02;52531.66;5057136;28;19964;-73
2023/01/01 10:02:48;;;;;;;;;;;;;;;-144.99;62.95;52578.53;5052248;28;19944;-72
2023/01/01 10:05:21;;;;;;;;;;;;;;;-144.99;62.90;52521.47;5051649;28;20009;-73
2023/01/01 10:07:50;;;;;;;;;;;;;;;-144.99;62.92;52558.16;5050570;28;19940;-72
2023/01/01 10:10:28;;;;;;;;;;;;;;;-144.99;62.48;52529.63;5051231;28;19983;-73
2023/01/01 10:12:59;;;;;;;;;;;;;;;-144.99;61.93;52554.09;5052078;28;19972;-72
2023/01/01 10:15:28;;;;;;;;;;;;;;;-144.99;61.07;52552.03;5041856;28;19943;-73
2023/01/01 10:17:57;;;;;;;;;;;;;;;-144.99;60.98;52541.84;5052027;28;19947;-74
2023/01/01 10:20:25;;;;;;;;;;;;;;;-144.99;61.15;52509.25;5055909;28;19965;-72
2023/01/01 10:22:53;;;;;;;;;;;;;;;-144.99;60.79;52525.56;5063591;28;19955;-73
2023/01/01 10:25:22;;;;;;;;;;;;;;;-144.99;60.82;52554.09;5060536;28;20386;-72
2023/01/01 10:27:51;;;;;;;;;;;;;;;-144.99;60.64;52517.41;5060137;28;20076;-72
2023/01/01 10:30:18;;;;;;;;;;;;;;;-144.99;60.71;52521.47;5056515;28;19966;-72
2023/01/01 10:32:47;;;;;;;;;;;;;;;-144.99;59.78;52513.31;5056468;28;19947;-72
2023/01/01 10:35:14;;;;;;;;;;;;;;;-144.99;58.43;52509.25;5053930;28;20408;-72
2023/01/01 10:37:41;;;;;;;;;;;;;;;-144.99;57.50;52474.59;5051946;28;20023;-73
2023/01/01 10:40:14;;;;;;;;;;;;;;;-144.99;57.11;52464.41;5048082;28;19967;-73
2023/01/01 10:42:42;;;;;;;;;;;;;;;-144.99;57.06;52492.94;5043415;28;19980;-72
2023/01/01 10:45:12;;;;;;;;;;;;;;;-144.99;57.14;52488.84;5044653;28;19967;-73
2023/01/01 10:47:39;;;;;;;;;;;;;;;-144.99;57.11;52480.72;5050161;28;19945;-73
2023/01/01 10:50:07;;;;;;;;;;;;;;;-144.99;57.27;52448.09;5048554;28;20043;-72
2023/01/01 10:52:35;;;;;;;;;;;;;;;-144.99;57.17;52439.94;5048714;28;20378;-72
2023/01/01 10:55:02;;;;;;;;;;;;;;;-144.99;56.64;52423.63;5053184;28;19944;-73
2023/01/01 10:57:36;;;;;;;;;;;;;;;-144.99;54.58;52395.09;5059035;28;19947;-73
2023/01/01 11:00:21;;;;;;;;;;;;;;;-144.99;53.90;52374.72;5047511;28;20095;-72
2023/01/01 11:02:48;;;;;;;;;;;;;;;-144.99;52.66;52415.47;5044288;28;19946;-73
2023/01/01 11:05:17;;;;;;;;;;;;;;;-144.99;52.55;52338.03;5044042;28;20382;-73
2023/01/01 11:07:43;;;;;;;;;;;;;;;-144.99;51.32;52301.34;5047797;28;20096;-73
2023/01/01 11:10:17;;;;;;;;;;;;;;;-144.99;50.00;52317.66;5046784;28;20215;-73
2023/01/01 11:12:43;;;;;;;;;;;;;;;-144.99;49.29;52303.38;5048812;28;19961;-73
2023/01/01 11:15:22;;;;;;;;;;;;;;;-144.99;48.67;52321.72;5045746;28;19979;-73
2023/01/01 11:17:49;;;;;;;;;;;;;;;-144.99;48.93;52342.09;5048149;28;19944;-73
2023/01/01 11:20:18;;;;;;;;;;;;;;;-144.99;49.63;52378.78;5048312;28;20325;-73
2023/01/01 11:22:46;;;;;;;;;;;;;;;-144.99;50.32;52384.91;5043245;28;19963;-73
2023/01/01 11:25:17;;;;;;;;;;;;;;;-144.99;50.24;52362.50;5047620;28;20231;-73
2023/01/01 11:27:44;;;;;;;;;;;;;;;-144.99;49.72;52333.94;5044357;28;19944;-74
2023/01/01 11:30:19;;;;;;;;;;;;;;;-144.99;49.58;52399.19;5048542;28;20476;-73
2023/01/01 11:32:48;;;;;;;;;;;;;;;-144.99;49.97;52378.78;5042358;28;20409;-73
2023/01/01 11:35:17;;;;;;;;;;;;;;;-144.99;50.46;52376.75;5049396;28;20340;-73
2023/01/01 11:37:45;;;;;;;;;;;;;;;-144.99;50.59;52431.78;5048895;28;19944;-73
2023/01/01 11:40:17;;;;;;;;;;;;;;;-144.99;51.30;52360.44;5035636;28;19964;-73
2023/01/01 11:42:46;;;;;;;;;;;;;;;-144.99;51.24;52517.41;5046778;28;19941;-73
2023/01/01 11:45:17;;;;;;;;;;;;;;;-144.99;52.07;52448.09;5043878;28;20049;-73
2023/01/01 11:47:44;;;;;;;;;;;;;;;-144.99;52.18;52484.78;5045272;28;20034;-72
2023/01/01 11:50:23;;;;;;;;;;;;;;;-144.99;52.62;52456.25;5052735;28;20426;-73
2023/01/01 11:52:50;;;;;;;;;;;;;;;-144.99;51.92;52517.41;5046904;28;20453;-72
2023/01/01 11:55:20;;;;;;;;;;;;;;;-144.99;52.05;52423.63;5046968;28;20003;-73
2023/01/01 11:57:51;;;;;;;;;;;;;;;-144.99;51.30;52407.31;5045457;28;19947;-72
2023/01/01 12:00:17;;;;;;;;;;;;;;;-144.99;50.56;52388.97;5045578;28;19957;-73
2023/01/01 12:02:48;;;;;;;;;;;;;;;-144.99;50.78;52395.09;5045403;28;19939;-73
2023/01/01 12:05:17;;;;;;;;;;;;;;;-144.99;49.94;52448.09;5051042;28;20011;-73
2023/01/01 12:07:46;;;;;;;;;;;;;;;-144.99;48.90;52342.09;5050116;28;20425;-73
2023/01/01 12:10:17;;;;;;;;;;;;;;;-144.99;48.64;52301.34;5051233;28;20039;-73
2023/01/01 12:12:48;;;;;;;;;;;;;;;-144.99;47.51;52346.19;5050799;28;19942;-73
2023/01/01 12:15:17;;;;;;;;;;;;;;;-144.99;47.24;52307.47;5052290;28;20040;-73
2023/01/01 12:17:44;;;;;;;;;;;;;;;-144.99;47.14;52303.38;5052916;28;19945;-73
2023/01/01 12:20:13;;;;;;;;;;;;;;;-144.99;46.20;52280.97;5051520;28;20017;-73
2023/01/01 12:22:40;;;;;;;;;;;;;;;-144.99;45.83;52252.44;5052636;28;19943;-73
2023/01/01 12:25:12;;;;;;;;;;;;;;;-144.99;44.82;52297.25;5052088;28;19965;-72
2023/01/01 12:27:46;;;;;;;;;;;;;;;-144.99;44.37;52301.34;5050156;28;20007;-72
2023/01/01 12:30:15;;;;;;;;;;;;;;;-144.99;45.10;52280.97;5049432;28;20233;-72
2023/01/01 12:33:03;;;;;;;;;;;;;;;-144.99;44.79;52285.03;5051244;28;19965;-72
2023/01/01 12:35:36;;;;;;;;;;;;;;;-144.99;45.20;52268.72;5029830;28;20029;-72
2023/01/01 12:38:12;;;;;;;;;;;;;;;-144.99;45.34;52391.03;5046596;28;19945;-72
2023/01/01 12:40:46;;;;;;;;;;;;;;;-144.99;46.21;52460.31;5049339;28;19968;-72